Time,TemperatureF,DewpointF,PressureIn,WindDirection,WindDirectionDegrees,WindSpeedMPH,WindSpeedGustMPH,Humidity,HourlyPrecipIn,Conditions,Clouds,dailyrainin,SoftwareType,DateUTC
2014-12-22 00:00:00,37.0,36.5,28.20,WNW,292,0.0,0.0,98,0.00,,---,0.00,VWS V14.01,2014-12-22 06:00:00,
2014-12-22 00:05:00,37.0,36.5,28.20,WNW,292,0.0,0.0,98,0.00,,---,0.00,VWS V14.01,2014-12-22 06:05:00,
2014-12-22 00:10:00,37.0,36.5,28.20,NNW,338,0.0,0.0,98,0.00,,---,0.00,VWS V14.01,2014-12-22 06:10:00,
2014-12-22 00:15:00,37.0,36.5,28.20,ENE,68,0.0,0.0,98,0.00,,---,0.00,VWS V14.01,2014-12-22 06:15:00,
2014-12-22 00:20:00,37.0,36.5,28.20,NW,315,0.0,0.0,98,0.00,,---,0.00,VWS V14.01,2014-12-22 06:20:00,
2014-12-22 00:25:00,36.9,36.3,28.20,WNW,292,0.0,0.0,98,0.00,,---,0.00,VWS V14.01,2014-12-22 06:25:00,
2014-12-22 00:30:00,36.9,36.3,28.20,NW,315,0.0,0.0,98,0.00,,---,0.00,VWS V14.01,2014-12-22 06:30:00,
2014-12-22 00:35:00,36.9,36.3,28.20,WSW,248,0.0,2.2,98,0.00,,---,0.00,VWS V14.01,2014-12-22 06:35:00,
2014-12-22 00:40:00,36.9,36.3,28.20,NNE,22,0.0,0.0,98,0.00,,---,0.00,VWS V14.01,2014-12-22 06:40:00,
2014-12-22 00:45:00,36.9,36.3,28.20,WNW,292,0.0,0.0,98,0.00,,---,0.00,VWS V14.01,2014-12-22 06:45:00,
2014-12-22 00:50:00,36.9,36.3,28.20,NNE,22,0.0,0.0,98,0.00,,---,0.00,VWS V14.01,2014-12-22 06:50:00,
2014-12-22 00:55:00,36.9,36.3,28.20,WNW,292,0.0,0.0,98,0.00,,---,0.00,VWS V14.01,2014-12-22 06:55:00,
2014-12-22 01:00:00,36.9,36.3,28.20,WNW,292,0.0,0.0,98,0.00,,---,0.00,VWS V14.01,2014-12-22 07:00:00,
2014-12-22 01:05:00,36.9,36.3,28.20,WNW,292,0.0,0.0,98,0.00,,---,0.00,VWS V14.01,2014-12-22 07:05:00,
2014-12-22 01:10:00,36.9,36.3,28.20,NNW,338,0.0,0.0,98,0.00,,---,0.00,VWS V14.01,2014-12-22 07:10:00,
2014-12-22 01:15:00,36.9,36.3,28.20,WNW,292,0.0,0.0,98,0.00,,---,0.00,VWS V14.01,2014-12-22 07:15:00,
2014-12-22 01:20:00,36.9,36.3,28.20,NNE,22,0.0,0.0,98,0.00,,---,0.00,VWS V14.01,2014-12-22 07:20:00,
2014-12-22 01:25:00,36.9,36.3,28.20,WNW,292,0.0,0.0,98,0.00,,---,0.00,VWS V14.01,2014-12-22 07:25:00,
2014-12-22 01:30:00,36.9,36.3,28.20,NNE,22,2.7,2.7,98,0.00,,---,0.00,VWS V14.01,2014-12-22 07:30:00,
2014-12-22 01:35:00,36.9,36.3,28.20,NNE,22,0.0,0.0,98,0.00,,---,0.00,VWS V14.01,2014-12-22 07:35:00,
2014-12-22 01:41:00,36.9,36.3,28.20,NW,315,0.0,0.0,98,0.00,,---,0.00,VWS V14.01,2014-12-22 07:41:00,
2014-12-22 01:46:00,36.7,36.2,28.20,NNW,338,3.1,3.1,98,0.00,,---,0.00,VWS V14.01,2014-12-22 07:46:00,
2014-12-22 01:51:00,36.7,36.2,28.20,WNW,292,0.0,0.0,98,0.00,,---,0.00,VWS V14.01,2014-12-22 07:51:00,
2014-12-22 01:56:00,36.7,36.2,28.20,WNW,292,0.0,0.0,98,0.00,,---,0.00,VWS V14.01,2014-12-22 07:56:00,
2014-12-22 02:01:00,36.7,36.2,28.17,NNW,338,0.0,0.0,98,0.00,,---,0.00,VWS V14.01,2014-12-22 08:01:00,
2014-12-22 02:06:00,36.7,36.2,28.17,NW,315,0.0,4.0,98,0.00,,---,0.00,VWS V14.01,2014-12-22 08:06:00,
2014-12-22 02:11:00,36.5,36.0,28.17,NE,45,3.1,3.1,98,0.00,,---,0.00,VWS V14.01,2014-12-22 08:11:00,
2014-12-22 02:16:00,36.5,36.0,28.17,SSE,158,3.6,7.8,98,0.00,,---,0.00,VWS V14.01,2014-12-22 08:16:00,
2014-12-22 02:21:00,36.5,36.0,28.17,WNW,292,2.9,8.5,98,0.00,,---,0.00,VWS V14.01,2014-12-22 08:21:00,
2014-12-22 02:26:00,36.5,36.0,28.17,NW,315,5.4,5.4,98,0.00,,---,0.00,VWS V14.01,2014-12-22 08:26:00,
2014-12-22 02:31:00,36.3,35.8,28.17,WNW,292,1.1,3.8,98,0.00,,---,0.00,VWS V14.01,2014-12-22 08:31:00,
2014-12-22 02:36:00,36.3,35.8,28.17,WSW,248,3.6,7.6,98,0.00,,---,0.00,VWS V14.01,2014-12-22 08:36:00,
2014-12-22 02:41:00,36.3,35.8,28.17,WNW,292,4.9,6.5,98,0.00,,---,0.00,VWS V14.01,2014-12-22 08:41:00,
2014-12-22 02:46:00,36.3,35.8,28.17,NW,315,7.8,7.8,98,0.00,,---,0.00,VWS V14.01,2014-12-22 08:46:00,
2014-12-22 02:51:00,36.3,35.8,28.17,WNW,292,3.8,5.8,98,0.00,,---,0.00,VWS V14.01,2014-12-22 08:51:00,
2014-12-22 02:56:00,36.3,35.8,28.17,WNW,292,8.5,8.5,98,0.00,,---,0.00,VWS V14.01,2014-12-22 08:56:00,
2014-12-22 03:01:00,36.3,35.8,28.17,WNW,292,1.3,1.3,98,0.00,,---,0.00,VWS V14.01,2014-12-22 09:01:00,
2014-12-22 03:06:00,36.3,35.8,28.17,NW,315,3.8,7.4,98,0.00,,---,0.00,VWS V14.01,2014-12-22 09:06:00,
2014-12-22 03:11:00,36.3,35.8,28.17,WNW,292,4.0,5.8,98,0.00,,---,0.00,VWS V14.01,2014-12-22 09:11:00,
2014-12-22 03:16:00,36.3,35.8,28.17,WNW,292,4.3,4.3,98,0.00,,---,0.00,VWS V14.01,2014-12-22 09:16:00,
2014-12-22 03:21:00,36.3,35.8,28.17,WNW,292,4.3,4.3,98,0.00,,---,0.00,VWS V14.01,2014-12-22 09:21:00,
2014-12-22 03:26:00,36.1,35.6,28.17,WNW,292,7.2,7.2,98,0.00,,---,0.00,VWS V14.01,2014-12-22 09:26:00,
2014-12-22 03:31:00,36.1,35.6,28.17,NNW,338,2.5,2.7,98,0.00,,---,0.00,VWS V14.01,2014-12-22 09:31:00,
2014-12-22 03:36:00,36.1,35.6,28.17,NNW,338,1.6,2.9,98,0.00,,---,0.00,VWS V14.01,2014-12-22 09:36:00,
2014-12-22 03:42:00,36.1,35.6,28.17,NW,315,3.8,4.0,98,0.00,,---,0.00,VWS V14.01,2014-12-22 09:42:00,
2014-12-22 03:47:00,36.1,35.6,28.17,WSW,248,5.4,5.4,98,0.00,,---,0.00,VWS V14.01,2014-12-22 09:47:00,
2014-12-22 03:52:00,36.1,35.6,28.17,West,270,5.4,6.0,98,0.00,,---,0.00,VWS V14.01,2014-12-22 09:52:00,
2014-12-22 03:57:00,36.1,35.6,28.17,West,270,4.7,5.4,98,0.00,,---,0.00,VWS V14.01,2014-12-22 09:57:00,
2014-12-22 04:02:00,36.1,35.6,28.14,NNW,338,6.0,6.0,98,0.00,,---,0.00,VWS V14.01,2014-12-22 10:02:00,
2014-12-22 04:07:00,36.1,35.6,28.14,WSW,248,9.2,9.2,98,0.00,,---,0.00,VWS V14.01,2014-12-22 10:07:00,
2014-12-22 04:12:00,36.1,35.6,28.14,WSW,248,3.6,6.0,98,0.00,,---,0.00,VWS V14.01,2014-12-22 10:12:00,
2014-12-22 04:17:00,36.1,35.6,28.14,North,0,4.0,5.4,98,0.00,,---,0.00,VWS V14.01,2014-12-22 10:17:00,
2014-12-22 04:22:00,36.1,35.6,28.14,NNW,338,3.4,4.7,98,0.00,,---,0.00,VWS V14.01,2014-12-22 10:22:00,
2014-12-22 04:27:00,36.1,35.6,28.14,NNW,338,4.7,4.7,98,0.00,,---,0.00,VWS V14.01,2014-12-22 10:27:00,
2014-12-22 04:32:00,36.1,35.6,28.14,WSW,248,4.0,7.4,98,0.00,,---,0.00,VWS V14.01,2014-12-22 10:32:00,
2014-12-22 04:37:00,36.1,35.6,28.14,WNW,292,10.7,10.7,98,0.00,,---,0.00,VWS V14.01,2014-12-22 10:37:00,
2014-12-22 04:42:00,36.1,35.6,28.14,WNW,292,3.4,5.8,98,0.00,,---,0.00,VWS V14.01,2014-12-22 10:42:00,
2014-12-22 04:47:00,36.1,35.6,28.14,NNW,338,4.0,7.8,98,0.00,,---,0.00,VWS V14.01,2014-12-22 10:47:00,
2014-12-22 04:52:00,36.1,35.6,28.14,NNW,338,4.3,5.4,98,0.00,,---,0.00,VWS V14.01,2014-12-22 10:52:00,
2014-12-22 04:57:00,36.1,35.6,28.14,NW,315,1.1,4.0,98,0.00,,---,0.00,VWS V14.01,2014-12-22 10:57:00,
2014-12-22 05:03:00,36.1,35.6,28.14,WNW,292,7.4,7.4,98,0.00,,---,0.00,VWS V14.01,2014-12-22 11:03:00,
2014-12-22 05:08:00,36.1,35.6,28.14,WNW,292,1.6,1.6,98,0.00,,---,0.00,VWS V14.01,2014-12-22 11:08:00,
2014-12-22 05:13:00,36.1,35.6,28.14,WNW,292,3.4,6.0,98,0.00,,---,0.00,VWS V14.01,2014-12-22 11:13:00,
2014-12-22 05:18:00,36.1,35.6,28.14,WNW,292,4.9,5.8,98,0.00,,---,0.00,VWS V14.01,2014-12-22 11:18:00,
2014-12-22 05:23:00,36.1,35.6,28.14,WNW,292,3.8,6.0,98,0.00,,---,0.00,VWS V14.01,2014-12-22 11:23:00,
2014-12-22 05:28:00,36.1,35.6,28.14,WNW,292,3.8,6.0,98,0.00,,---,0.00,VWS V14.01,2014-12-22 11:28:00,
2014-12-22 05:33:00,36.1,35.6,28.14,WNW,292,3.8,6.0,98,0.00,,---,0.00,VWS V14.01,2014-12-22 11:33:00,
2014-12-22 05:38:00,36.1,35.6,28.14,NW,315,4.3,6.5,98,0.00,,---,0.00,VWS V14.01,2014-12-22 11:38:00,
2014-12-22 05:43:00,36.1,35.6,28.14,NNW,338,4.7,6.5,98,0.00,,---,0.00,VWS V14.01,2014-12-22 11:43:00,
2014-12-22 05:48:00,36.1,35.6,28.14,WNW,292,5.6,5.6,98,0.00,,---,0.00,VWS V14.01,2014-12-22 11:48:00,
2014-12-22 05:53:00,36.1,35.6,28.14,ENE,68,5.6,5.6,98,0.00,,---,0.00,VWS V14.01,2014-12-22 11:53:00,
2014-12-22 05:58:00,36.1,35.6,28.14,ENE,68,5.6,5.6,98,0.00,,---,0.00,VWS V14.01,2014-12-22 11:58:00,
2014-12-22 06:04:00,36.1,35.6,28.14,NNE,22,2.5,2.5,98,0.00,,---,0.00,VWS V14.01,2014-12-22 12:04:00,
2014-12-22 06:09:00,36.1,35.6,28.14,WNW,292,4.3,4.3,98,0.00,,---,0.00,VWS V14.01,2014-12-22 12:09:00,
2014-12-22 07:22:00,35.4,34.9,28.14,NNE,22,4.7,4.7,98,0.00,,---,0.00,VWS V14.01,2014-12-22 13:22:00,
2014-12-22 07:27:00,35.4,34.9,28.14,WNW,292,3.1,3.6,98,0.00,,---,0.00,VWS V14.01,2014-12-22 13:27:00,
2014-12-22 07:32:00,35.4,34.9,28.14,WSW,248,2.9,2.9,98,0.00,,---,0.00,VWS V14.01,2014-12-22 13:32:00,
2014-12-22 07:37:00,35.4,34.9,28.14,North,0,3.6,3.8,98,0.00,,---,0.00,VWS V14.01,2014-12-22 13:37:00,
2014-12-22 07:42:00,35.2,34.7,28.14,WNW,292,6.5,6.5,98,0.00,,---,0.00,VWS V14.01,2014-12-22 13:42:00,
2014-12-22 07:47:00,35.2,34.7,28.14,NNW,338,7.2,7.2,98,0.00,,---,0.00,VWS V14.01,2014-12-22 13:47:00,
2014-12-22 07:53:00,35.2,34.7,28.14,WNW,292,2.9,4.7,98,0.00,,---,0.00,VWS V14.01,2014-12-22 13:53:00,
2014-12-22 07:58:00,35.1,34.5,28.14,NW,315,4.3,4.3,98,0.00,,---,0.00,VWS V14.01,2014-12-22 13:58:00,
2014-12-22 08:03:00,35.1,34.5,28.14,WNW,292,2.2,3.8,98,0.00,,---,0.00,VWS V14.01,2014-12-22 14:03:00,
2014-12-22 08:08:00,35.1,34.5,28.14,NNW,338,6.0,6.5,98,0.00,,---,0.00,VWS V14.01,2014-12-22 14:08:00,
2014-12-22 08:13:00,35.1,34.5,28.14,WNW,292,6.5,6.5,98,0.00,,---,0.00,VWS V14.01,2014-12-22 14:13:00,
2014-12-22 08:18:00,35.1,34.5,28.14,WNW,292,3.4,3.4,98,0.00,,---,0.00,VWS V14.01,2014-12-22 14:18:00,
2014-12-22 08:23:00,35.1,34.5,28.14,North,0,3.1,5.8,98,0.00,,---,0.00,VWS V14.01,2014-12-22 14:23:00,
2014-12-22 08:28:00,34.9,34.4,28.14,WNW,292,4.0,4.3,98,0.00,,---,0.00,VWS V14.01,2014-12-22 14:28:00,
2014-12-22 08:33:00,34.9,34.4,28.14,NNE,22,6.9,6.9,98,0.00,,---,0.00,VWS V14.01,2014-12-22 14:33:00,
2014-12-22 08:38:00,34.9,34.4,28.14,SSW,202,3.6,3.6,98,0.00,,---,0.00,VWS V14.01,2014-12-22 14:38:00,
2014-12-22 08:43:00,34.9,34.4,28.14,North,0,3.6,4.9,98,0.00,,---,0.00,VWS V14.01,2014-12-22 14:43:00,
2014-12-22 08:48:00,34.9,34.4,28.14,WNW,292,5.6,5.8,98,0.00,,---,0.00,VWS V14.01,2014-12-22 14:48:00,
2014-12-22 08:54:00,34.9,34.4,28.14,WSW,248,3.8,6.0,98,0.00,,---,0.00,VWS V14.01,2014-12-22 14:54:00,
2014-12-22 08:59:00,34.9,34.4,28.14,NNW,338,4.3,4.5,98,0.00,,---,0.00,VWS V14.01,2014-12-22 14:59:00,
2014-12-22 09:04:00,34.9,34.4,28.14,WNW,292,3.1,4.9,98,0.00,,---,0.00,VWS V14.01,2014-12-22 15:04:00,